Latest Weather Observations for Dum In Mirrie

IDD60801

Issued at 6:05 pm CST Wednesday 20 August 2014 (issued every 30 minutes, with the page automatically refreshed every 10 minutes)

About weather observations | Map of weather stations | Latest weather observations for NT | Other Formats
Station Details ID: 014277 Name: DUM IN MIRRIE AIRSTRIP Lat: -12.63 Lon: 130.37 Height: 3.5 m
Data from the previous 72 hours. | See also: Recent months at Dum In Mirrie
Date/Time
CST
Temp
°C
App
Temp
°C
Dew
Point
Rel
Hum
%
Delta-T
°C
Wind Press
QNH
hPa
Press
MSL
hPa
Rain
since 9 am
mm
Dir
 
Spd
km/h
Gust
km/h
Spd
kts
Gust
kts
20/06:00pm 25.6 27.4 18.8 66 4.3 N 7 13 4 7 1012.5 1012.5 0.0
20/05:30pm 26.0 27.3 19.4 67 4.3 N 11 19 6 10 1012.3 1012.3 0.0
20/05:00pm 26.3 27.8 19.7 67 4.3 N 11 17 6 9 1012.2 - 0.0
20/04:30pm 26.9 28.5 20.0 66 4.5 N 11 19 6 10 1012.2 1012.2 0.0
20/04:00pm 27.2 28.4 19.8 64 4.8 N 13 24 7 13 1012.2 - 0.0
20/03:30pm 26.8 26.6 19.4 64 4.8 N 19 28 10 15 1012.4 1012.4 0.0
20/03:00pm 27.0 27.4 19.9 65 4.6 N 17 24 9 13 1012.6 1012.6 0.0
20/02:30pm 27.6 28.4 19.1 59 5.5 N 13 22 7 12 1012.9 1012.9 0.0
20/02:00pm 27.8 28.6 19.1 59 5.6 N 13 19 7 10 1013.4 - 0.0
20/01:30pm 27.6 28.2 17.7 54 6.2 N 11 17 6 9 1013.9 1013.9 0.0
20/01:00pm 28.6 27.5 12.1 36 9.6 NE 9 15 5 8 1014.4 - 0.0
20/12:30pm 27.7 25.8 10.4 34 9.7 NE 11 20 6 11 1014.9 1014.9 0.0
20/12:00pm 27.6 24.4 8.5 30 10.4 E 15 22 8 12 1015.2 1015.2 0.0
20/11:30am 27.0 23.8 8.4 31 10.1 E 15 28 8 15 1015.4 1015.4 0.0
20/11:00am 26.1 22.1 6.7 29 10.2 E 17 24 9 13 1015.8 - 0.0
20/10:30am 26.1 22.5 6.7 29 10.1 E 15 22 8 12 1016.0 1016.0 0.0
20/10:00am 24.7 21.2 7.4 33 9.1 ESE 15 24 8 13 1016.1 - 0.0
20/09:30am 23.6 19.6 6.8 34 8.7 E 17 26 9 14 1016.0 1016.0 0.0
20/09:00am 22.8 19.9 6.6 35 8.3 ESE 11 19 6 10 1015.7 1015.7 0.0
20/08:30am 21.0 18.4 7.6 42 6.9 ESE 11 17 6 9 1015.6 1015.6 0.0
20/08:00am 19.2 17.5 9.7 54 5.0 ESE 9 15 5 8 1015.3 - 0.0
20/07:30am 15.9 15.4 12.8 82 1.7 ESE 7 11 4 6 1015.2 1015.2 0.0
20/07:00am 15.1 15.1 13.5 90 0.9 ESE 6 7 3 4 1014.9 - 0.0
20/06:30am 15.7 16.5 14.7 94 0.6 SE 4 7 2 4 1014.7 1014.7 0.0
20/06:00am 15.6 16.7 14.6 94 0.6 SSE 2 4 1 2 1014.4 1014.4 0.0
20/05:30am 16.9 18.7 16.4 97 0.3 SSE 2 6 1 3 1014.1 1014.1 0.0
20/05:00am 16.9 18.8 16.6 98 0.2 SE 2 6 1 3 1013.9 - 0.0
20/04:30am 16.4 17.6 15.9 97 0.3 SSE 4 6 2 3 1014.0 1014.0 0.0
20/04:00am 15.6 16.3 14.6 94 0.6 SSE 4 6 2 3 1013.9 - 0.0
20/03:30am 16.0 16.9 15.2 95 0.5 SE 4 6 2 3 1014.1 1014.1 0.0
20/03:00am 15.8 17.4 14.8 94 0.6 CALM 0 0 0 0 1014.1 1014.1 0.0
20/02:30am 16.3 18.0 15.3 94 0.6 CALM 0 0 0 0 1014.3 1014.3 0.0
20/02:00am 16.1 17.7 15.0 93 0.6 CALM 0 0 0 0 1014.4 - 0.0
20/01:30am 16.6 18.4 15.5 93 0.6 CALM 0 0 0 0 1014.6 1014.6 0.0
20/01:00am 17.2 18.7 15.7 91 0.9 S 2 2 1 1 1014.9 - 0.0
20/12:30am 17.9 20.1 16.4 91 0.9 CALM 0 0 0 0 1015.2 1015.2 0.0
20/12:00am 18.8 20.7 16.6 87 1.3 SSE 2 4 1 2 1015.2 1015.2 0.0
 
Date/Time
CST
Temp
°C
App
Temp
°C
Dew
Point
Rel
Hum
%
Delta-T
°C
Wind Press
QNH
hPa
Press
MSL
hPa
Rain
since 9 am
mm
Dir
 
Spd
km/h
Gust
km/h
Spd
kts
Gust
kts
19/11:30pm 20.3 22.8 18.1 87 1.4 S 2 4 1 2 1015.0 1015.0 0.0
19/11:00pm 21.7 24.2 19.1 85 1.6 S 4 9 2 5 1014.9 - 0.0
19/10:30pm 22.2 24.7 20.3 89 1.2 SSW 7 11 4 6 1015.1 1015.1 0.0
19/10:00pm 20.7 23.3 19.2 91 0.9 SSW 4 7 2 4 1014.9 - 0.0
19/09:30pm 19.9 23.0 18.7 93 0.7 CALM 0 2 0 1 1014.6 1014.6 0.0
19/09:00pm 18.9 21.3 16.9 88 1.2 CALM 0 4 0 2 1014.3 1014.3 0.0
19/08:30pm 19.6 22.2 17.6 88 1.2 CALM 0 0 0 0 1014.1 1014.1 0.0
19/08:00pm 20.8 23.1 17.8 83 1.9 W 2 4 1 2 1013.7 - 0.0
19/07:30pm 22.1 25.0 18.3 79 2.4 CALM 0 0 0 0 1013.4 1013.4 0.0
19/07:00pm 22.9 25.3 18.0 74 3.1 WSW 2 6 1 3 1013.1 - 0.0
19/06:30pm 24.4 26.9 18.1 68 4.0 W 2 4 1 2 1012.8 1012.8 0.0
19/06:00pm 25.4 27.0 16.8 59 5.3 NW 4 7 2 4 1012.6 1012.6 0.0
19/05:30pm 26.1 27.1 16.9 57 5.7 N 7 13 4 7 1012.6 1012.6 0.0
19/05:00pm 26.1 26.5 17.2 58 5.5 N 11 17 6 9 1012.5 - 0.0
19/04:30pm 26.1 25.2 16.9 57 5.7 N 17 22 9 12 1012.6 1012.6 0.0
19/04:00pm 26.8 26.8 18.1 59 5.5 N 15 24 8 13 1012.7 - 0.0
19/03:30pm 27.0 26.5 17.8 57 5.8 N 17 28 9 15 1012.8 1012.8 0.0
19/03:00pm 27.0 26.2 17.2 55 6.1 N 17 28 9 15 1013.2 1013.2 0.0
19/02:30pm 27.4 27.4 18.1 57 5.9 N 15 24 8 13 1013.5 1013.5 0.0
19/02:00pm 27.8 27.1 16.4 50 7.1 N 15 26 8 14 1014.0 - 0.0
19/01:30pm 28.0 26.8 16.0 48 7.4 N 17 28 9 15 1014.5 1014.5 0.0
19/01:00pm 28.7 26.4 10.4 32 10.3 NE 13 20 7 11 1014.9 - 0.0
19/12:30pm 28.2 25.4 9.9 32 10.2 NE 15 22 8 12 1015.4 1015.4 0.0
19/12:00pm 28.3 24.3 8.1 28 11.0 E 19 28 10 15 1015.9 1015.9 0.0
19/11:30am 28.5 25.6 9.7 31 10.5 E 15 26 8 14 1016.3 1016.3 0.0
19/11:00am 27.5 24.0 7.4 28 10.7 ESE 15 24 8 13 1016.6 - 0.0
19/10:30am 26.5 23.5 6.0 27 10.6 ESE 11 19 6 10 1016.9 1016.9 0.0
19/10:00am 24.9 22.0 6.6 31 9.5 ESE 11 17 6 9 1017.0 - 0.0
19/09:30am 22.9 20.4 6.6 35 8.3 ESE 9 15 5 8 1017.1 1017.1 0.0
19/09:00am 22.3 19.8 6.5 36 8.0 ESE 9 15 5 8 1017.0 1017.0 0.0
19/08:30am 20.0 18.8 9.6 51 5.5 SE 6 11 3 6 1017.1 1017.1 0.0
19/08:00am 18.2 17.4 11.0 63 3.9 SE 6 9 3 5 1016.7 - 0.0
19/07:30am 17.1 17.2 12.6 75 2.5 SE 4 7 2 4 1016.6 1016.6 0.0
19/07:00am 17.1 17.1 13.6 80 2.0 SSE 6 13 3 7 1016.3 - 0.0
19/06:30am 15.6 15.6 13.6 88 1.1 SSE 6 7 3 4 1016.0 1016.0 0.0
19/06:00am 16.3 16.9 14.3 88 1.1 SE 4 6 2 3 1015.6 1015.6 0.0
19/05:30am 16.1 17.0 15.0 93 0.6 SSE 4 9 2 5 1015.5 1015.5 0.0
19/05:00am 16.3 17.4 15.5 95 0.5 S 4 7 2 4 1015.1 - 0.0
19/04:30am 16.2 17.6 15.4 95 0.5 SSE 2 6 1 3 1015.1 1015.1 0.0
19/04:00am 16.4 17.5 15.6 95 0.5 SSE 4 4 2 2 1015.1 - 0.0
19/03:30am 16.5 17.6 15.5 94 0.6 S 4 6 2 3 1015.0 1015.0 0.0
19/03:00am 16.4 17.4 15.3 93 0.6 S 4 6 2 3 1015.1 1015.1 0.0
19/02:30am 16.5 17.4 15.2 92 0.8 S 4 6 2 3 1015.2 1015.2 0.0
19/02:00am 16.3 17.1 14.8 91 0.9 S 4 6 2 3 1015.3 - 0.0
19/01:30am 16.5 17.9 15.4 93 0.6 SSW 2 4 1 2 1015.5 1015.5 0.0
19/01:00am 16.7 17.6 15.2 91 0.9 SSW 4 6 2 3 1015.8 - 0.0
19/12:30am 16.7 18.1 15.4 92 0.8 S 2 6 1 3 1015.9 1015.9 0.0
19/12:00am 16.1 17.5 14.5 90 0.9 CALM 0 0 0 0 1016.0 1016.0 0.0
 
Date/Time
CST
Temp
°C
App
Temp
°C
Dew
Point
Rel
Hum
%
Delta-T
°C
Wind Press
QNH
hPa
Press
MSL
hPa
Rain
since 9 am
mm
Dir
 
Spd
km/h
Gust
km/h
Spd
kts
Gust
kts
18/11:30pm 16.3 17.9 14.8 91 0.9 CALM 0 0 0 0 1016.1 1016.1 0.0
18/11:00pm 16.6 18.2 14.8 89 1.0 CALM 0 0 0 0 1016.1 - 0.0
18/10:30pm 16.4 17.7 14.1 86 1.3 CALM 0 0 0 0 1016.0 1016.0 0.0
18/10:00pm 16.8 18.4 14.8 88 1.2 CALM 0 0 0 0 1015.8 - 0.0
18/09:30pm 17.1 18.3 13.8 81 1.9 CALM 0 0 0 0 1015.7 1015.7 0.0
18/09:00pm 17.3 18.4 13.6 79 2.1 CALM 0 0 0 0 1015.5 1015.5 0.0
18/08:30pm 17.5 18.3 12.6 73 2.7 CALM 0 0 0 0 1015.2 1015.2 0.0
18/08:00pm 18.3 19.1 12.7 70 3.1 CALM 0 0 0 0 1015.0 - 0.0
18/07:30pm 19.7 20.8 13.4 67 3.6 CALM 0 0 0 0 1014.6 1014.6 0.0
18/07:00pm 21.4 21.7 13.3 60 4.6 WNW 4 6 2 3 1014.4 - 0.0
18/06:30pm 23.9 24.2 13.4 51 6.1 WNW 4 6 2 3 1014.3 1014.3 0.0
18/06:00pm 25.4 25.2 12.9 45 7.3 NW 6 11 3 6 1014.0 1014.0 0.0
18/05:30pm 25.8 24.8 12.3 43 7.8 NNW 9 15 5 8 1013.9 1013.9 0.0
18/05:00pm 26.6 25.3 12.6 42 8.1 N 11 19 6 10 1013.5 - 0.0
18/04:30pm 26.5 24.5 11.4 39 8.6 N 13 24 7 13 1013.3 1013.3 0.0
18/04:00pm 26.9 25.3 11.4 38 8.8 N 11 19 6 10 1013.3 - 0.0
18/03:30pm 27.2 24.4 11.3 37 9.1 N 17 26 9 14 1013.2 1013.2 0.0
18/03:00pm 27.8 25.4 11.4 36 9.4 N 15 20 8 11 1013.3 1013.3 0.0
18/02:30pm 29.3 25.6 2.5 18 13.3 NNE 11 19 6 10 1013.7 1013.7 0.0
18/02:00pm 28.9 24.9 3.0 19 12.9 NE 13 24 7 13 1014.1 - 0.0
18/01:30pm 29.1 25.1 3.1 19 13.0 E 13 20 7 11 1014.6 1014.6 0.0
18/01:00pm 28.5 24.5 2.7 19 12.8 E 13 24 7 13 1015.1 - 0.0
18/12:30pm 27.9 23.7 3.6 21 12.2 E 15 24 8 13 1015.6 1015.6 0.0
18/12:00pm 27.6 23.3 3.3 21 12.1 E 15 22 8 12 1016.0 1016.0 0.0
18/11:30am 26.8 22.4 4.6 24 11.2 ESE 17 24 9 13 1016.4 1016.4 0.0
18/11:00am 26.3 21.5 4.7 25 10.9 ESE 19 30 10 16 1017.0 - 0.0
18/10:30am 25.3 19.8 3.9 25 10.6 E 22 35 12 19 1017.3 1017.3 0.0
18/10:00am 24.8 20.4 4.5 27 10.1 E 17 30 9 16 1017.3 - 0.0
18/09:30am 23.6 19.2 4.5 29 9.4 E 17 28 9 15 1017.3 1017.3 0.0
18/09:00am 22.5 19.3 5.0 32 8.7 ESE 11 17 6 9 1017.2 1017.2 0.0
18/08:30am 20.9 16.6 3.2 31 8.4 ESE 15 24 8 13 1016.9 1016.9 0.0
18/08:00am 20.0 16.5 3.3 33 7.9 ESE 11 19 6 10 1016.5 - 0.0
18/07:30am 19.0 15.6 4.0 37 7.1 ESE 11 17 6 9 1016.2 1016.2 0.0
18/07:00am 17.7 14.8 4.6 42 6.2 ESE 9 13 5 7 1015.9 - 0.0
18/06:30am 16.0 14.0 6.2 52 4.7 ESE 6 9 3 5 1015.6 1015.6 0.0
18/06:00am 15.5 13.6 6.8 56 4.3 ESE 6 7 3 4 1015.2 1015.2 0.0
18/05:30am 16.8 15.4 7.4 54 4.7 SE 4 7 2 4 1015.1 1015.1 0.0
18/05:00am 14.1 12.7 8.9 71 2.6 ESE 6 7 3 4 1015.0 - 0.0
18/04:30am 12.6 11.7 9.4 81 1.6 ESE 4 6 2 3 1014.9 1014.9 0.0
18/04:00am 13.2 12.7 9.5 78 1.9 SE 2 4 1 2 1014.8 - 0.0
18/03:30am 14.2 13.7 9.4 73 2.5 SSE 2 4 1 2 1014.6 1014.6 0.0
18/03:00am 14.8 13.7 9.8 72 2.6 SSE 6 6 3 3 1014.7 1014.7 0.0
18/02:30am 15.1 13.9 9.5 69 2.9 S 6 7 3 4 1014.9 1014.9 0.0
18/02:00am 14.9 14.0 9.3 69 2.9 S 4 7 2 4 1015.1 - 0.0
18/01:30am 16.1 15.7 11.1 72 2.7 S 4 6 2 3 1015.3 1015.3 0.0
18/01:00am 15.9 16.1 13.0 83 1.6 S 4 6 2 3 1015.5 - 0.0
18/12:30am 16.4 17.2 13.7 84 1.5 S 2 4 1 2 1015.4 1015.4 0.0
18/12:00am 16.6 16.8 12.9 79 2.1 S 4 4 2 2 1015.5 1015.5 0.0
 
Date/Time
CST
Temp
°C
App
Temp
°C
Dew
Point
Rel
Hum
%
Delta-T
°C
Wind Press
QNH
hPa
Press
MSL
hPa
Rain
since 9 am
mm
Dir
 
Spd
km/h
Gust
km/h
Spd
kts
Gust
kts
17/11:30pm 17.7 18.0 12.2 70 3.0 S 2 6 1 3 1015.5 1015.5 0.0
17/11:00pm 19.6 20.0 12.4 63 4.0 S 2 4 1 2 1015.6 - 0.0
17/10:30pm 21.9 21.8 13.8 60 4.7 SSW 7 11 4 6 1015.5 1015.5 0.0
17/10:00pm 23.0 23.6 16.8 68 3.8 SSW 9 13 5 7 1015.2 - 0.0
17/09:30pm 22.1 23.3 16.8 72 3.2 W 6 11 3 6 1015.0 1015.0 0.0
17/09:00pm 17.8 17.7 12.0 69 3.2 WNW 4 6 2 3 1014.8 1014.8 0.0
17/08:30pm 17.4 17.1 11.4 68 3.3 NW 4 6 2 3 1014.4 1014.4 0.0
17/08:00pm 18.8 18.6 11.9 64 3.8 NW 4 4 2 2 1014.0 - 0.0
17/07:30pm 20.5 20.7 13.0 62 4.3 NW 4 6 2 3 1013.7 1013.7 0.0
17/07:00pm 22.6 22.7 12.8 54 5.6 NW 4 7 2 4 1013.4 - 0.0
17/06:30pm 24.0 23.6 12.3 48 6.7 NW 6 11 3 6 1013.0 1013.0 0.0

Other Formats:

Comma delimited format used in spreadsheet applications
http://www.bom.gov.au/fwo/IDD60801/IDD60801.94116.axf

JavaScript Object Notation format (JSON) in row-major order
http://www.bom.gov.au/fwo/IDD60801/IDD60801.94116.json